Time;durP1;ratioP1;P1;durP2;ratioP2;P2;SDS_P1;SDS_P2;PMS_P1;PMS_P2;Temp;Humidity;BMP_temperature;BMP_pressure;BME280_temperature;BME280_humidity;BME280_pressure;Samples;Min_cycle;Max_cycle;Signal;HPM_P1;HPM_P2
2022/01/23 00:00:28;;;;;;;20.30;11.93;;;;;;;;;;5112556;28;20208;-81
2022/01/23 00:02:59;;;;;;;19.70;12.23;;;;;;;;;;5099702;28;20242;-82
2022/01/23 00:05:33;;;;;;;19.23;12.07;;;;;;;;;;5098523;28;20589;-83
2022/01/23 00:08:01;;;;;;;22.10;11.67;;;;;;;;;;5095711;28;20262;-83
2022/01/23 00:10:29;;;;;;;18.90;11.37;;;;;;;;;;5098927;28;20220;-82
2022/01/23 00:13:07;;;;;;;20.00;12.00;;;;;;;;;;5097902;28;20704;-83
2022/01/23 00:18:20;;;;;;;19.67;11.73;;;;;;;;;;5101032;28;20280;-83
2022/01/23 00:20:47;;;;;;;19.37;12.43;;;;;;;;;;5099788;28;20672;-82
2022/01/23 00:23:28;;;;;;;20.33;12.23;;;;;;;;;;5098858;28;20240;-81
2022/01/23 00:31:22;;;;;;;18.27;13.40;;;;;;;;;;5079186;28;20184;-80
2022/01/23 00:33:50;;;;;;;18.20;12.63;;;;;;;;;;5079270;28;20325;-81
2022/01/23 00:36:17;;;;;;;18.07;12.93;;;;;;;;;;5081161;28;20216;-81
2022/01/23 00:38:45;;;;;;;22.23;12.90;;;;;;;;;;5079490;28;20245;-81
2022/01/23 00:41:12;;;;;;;20.93;12.87;;;;;;;;;;5081828;28;20224;-81
2022/01/23 00:43:42;;;;;;;21.63;11.67;;;;;;;;;;5099327;28;20247;-81
2022/01/23 00:46:21;;;;;;;20.00;12.53;;;;;;;;;;5100107;28;20729;-82
2022/01/23 00:49:12;;;;;;;16.90;11.37;;;;;;;;;;5100106;28;20262;-81
2022/01/23 00:51:39;;;;;;;21.43;12.50;;;;;;;;;;5099874;28;20291;-82
2022/01/23 00:54:08;;;;;;;20.80;12.97;;;;;;;;;;5100297;28;20240;-82
2022/01/23 00:56:35;;;;;;;19.80;12.57;;;;;;;;;;5098198;28;20209;-81
2022/01/23 00:59:02;;;;;;;18.73;11.87;;;;;;;;;;5098355;28;20234;-81
2022/01/23 01:01:30;;;;;;;22.63;13.00;;;;;;;;;;5098665;28;20269;-81
2022/01/23 01:03:57;;;;;;;20.67;12.90;;;;;;;;;;5097181;28;20305;-82
2022/01/23 01:06:24;;;;;;;24.23;13.23;;;;;;;;;;5099371;28;20201;-81
2022/01/23 01:08:54;;;;;;;18.73;12.60;;;;;;;;;;5101392;28;20402;-81
2022/01/23 01:11:52;;;;;;;21.37;14.00;;;;;;;;;;5080178;28;20193;-81
2022/01/23 01:14:28;;;;;;;19.33;12.60;;;;;;;;;;5079626;28;20639;-81
2022/01/23 01:17:03;;;;;;;20.93;14.00;;;;;;;;;;5080283;28;20201;-82
2022/01/23 01:30:37;;;;;;;23.67;13.50;;;;;;;;;;5078596;28;20200;-81
2022/01/23 01:33:14;;;;;;;22.03;13.67;;;;;;;;;;5077911;28;20233;-81
2022/01/23 01:35:47;;;;;;;19.70;12.60;;;;;;;;;;5078054;28;20211;-81
2022/01/23 01:38:14;;;;;;;19.80;13.30;;;;;;;;;;5078947;28;20730;-82
2022/01/23 01:40:42;;;;;;;22.97;13.87;;;;;;;;;;5080147;28;20220;-81
2022/01/23 01:43:10;;;;;;;21.37;14.20;;;;;;;;;;5079004;28;20264;-81
2022/01/23 01:45:40;;;;;;;25.07;14.87;;;;;;;;;;5079350;28;20233;-82
2022/01/23 01:48:07;;;;;;;21.90;14.63;;;;;;;;;;5079607;28;20232;-82
2022/01/23 01:50:34;;;;;;;25.10;14.83;;;;;;;;;;5079436;28;20211;-82
2022/01/23 01:53:02;;;;;;;23.23;14.63;;;;;;;;;;5078463;28;20763;-82
2022/01/23 01:55:37;;;;;;;25.07;14.90;;;;;;;;;;5079094;28;20665;-82
2022/01/23 01:58:05;;;;;;;26.57;14.90;;;;;;;;;;5078570;28;20240;-81
2022/01/23 02:00:44;;;;;;;23.13;14.53;;;;;;;;;;5080631;28;20212;-81
2022/01/23 02:08:18;;;;;;;21.93;13.97;;;;;;;;;;5095865;28;20658;-81
2022/01/23 02:08:55;;;;;;;22.53;14.07;;;;;;;;;;5107020;28;20291;-82
2022/01/23 02:11:34;;;;;;;20.50;13.73;;;;;;;;;;5100928;28;20218;-80
2022/01/23 02:14:26;;;;;;;19.20;13.70;;;;;;;;;;5099702;28;20323;-82
2022/01/23 02:17:14;;;;;;;20.87;13.97;;;;;;;;;;5098032;28;20664;-80
2022/01/23 02:22:52;;;;;;;22.97;14.40;;;;;;;;;;5085882;28;20390;-81
2022/01/23 02:50:32;;;;;;;23.43;14.93;;;;;;;;;;5099349;28;20224;-81
2022/01/23 02:55:59;;;;;;;26.03;15.30;;;;;;;;;;5078348;28;20283;-81
2022/01/23 02:58:33;;;;;;;27.53;16.10;;;;;;;;;;5080201;28;20240;-81
2022/01/23 03:01:09;;;;;;;30.03;16.57;;;;;;;;;;5098886;28;20663;-81
2022/01/23 03:03:40;;;;;;;24.77;15.03;;;;;;;;;;5098241;28;20253;-80
2022/01/23 03:06:35;;;;;;;25.27;14.90;;;;;;;;;;5097779;28;20315;-80
2022/01/23 03:12:09;;;;;;;27.03;16.47;;;;;;;;;;5096194;28;20678;-80
2022/01/23 03:14:44;;;;;;;32.53;17.10;;;;;;;;;;5099507;28;20200;-80
2022/01/23 03:25:52;;;;;;;29.13;17.73;;;;;;;;;;5102405;28;20262;-82
2022/01/23 03:28:27;;;;;;;27.17;17.37;;;;;;;;;;5101344;28;20648;-80
2022/01/23 03:31:07;;;;;;;28.77;17.30;;;;;;;;;;5102301;28;20294;-80
2022/01/23 03:33:34;;;;;;;28.97;16.40;;;;;;;;;;5100896;28;20715;-80
2022/01/23 03:36:01;;;;;;;25.87;16.50;;;;;;;;;;5101746;28;20212;-80
2022/01/23 03:38:28;;;;;;;34.67;18.90;;;;;;;;;;5100974;28;20232;-80
2022/01/23 03:40:55;;;;;;;28.17;17.40;;;;;;;;;;5101460;28;20215;-80
2022/01/23 03:43:28;;;;;;;33.50;17.83;;;;;;;;;;5100951;28;20243;-80
2022/01/23 03:46:19;;;;;;;28.60;16.80;;;;;;;;;;5100973;28;20235;-80
2022/01/23 03:51:30;;;;;;;27.80;17.73;;;;;;;;;;5100902;28;20184;-80
2022/01/23 03:53:57;;;;;;;31.33;18.17;;;;;;;;;;5100401;28;20263;-80
2022/01/23 03:56:24;;;;;;;30.20;17.10;;;;;;;;;;5088919;28;20209;-80
2022/01/23 03:58:52;;;;;;;28.90;17.70;;;;;;;;;;5079429;28;20732;-80
2022/01/23 04:01:19;;;;;;;28.50;17.03;;;;;;;;;;5080063;28;20213;-80
2022/01/23 04:03:47;;;;;;;32.97;17.43;;;;;;;;;;5077952;28;20237;-81
2022/01/23 04:06:14;;;;;;;29.13;17.33;;;;;;;;;;5078179;28;20225;-80
2022/01/23 04:08:41;;;;;;;32.93;17.83;;;;;;;;;;5077173;28;20723;-80
2022/01/23 04:11:08;;;;;;;30.60;18.23;;;;;;;;;;5078032;28;20204;-80
2022/01/23 04:13:44;;;;;;;34.60;19.87;;;;;;;;;;5077637;28;20233;-80
2022/01/23 04:16:32;;;;;;;31.90;18.87;;;;;;;;;;5078143;28;20225;-80
2022/01/23 04:19:13;;;;;;;36.00;18.77;;;;;;;;;;5077159;28;20289;-81
2022/01/23 04:33:12;;;;;;;34.17;18.87;;;;;;;;;;5079613;28;20292;-80
2022/01/23 04:47:16;;;;;;;35.07;17.97;;;;;;;;;;5078840;28;20290;-80
2022/01/23 05:00:49;;;;;;;34.23;19.63;;;;;;;;;;5078757;28;20307;-80
2022/01/23 05:04:05;;;;;;;33.47;18.83;;;;;;;;;;5078501;28;20246;-79
2022/01/23 05:06:36;;;;;;;29.63;17.63;;;;;;;;;;5079040;28;20232;-80
2022/01/23 05:09:04;;;;;;;37.73;20.00;;;;;;;;;;5078588;28;20233;-80
2022/01/23 05:11:31;;;;;;;33.00;18.93;;;;;;;;;;5078803;28;20581;-80
2022/01/23 05:13:58;;;;;;;31.90;18.13;;;;;;;;;;5077779;28;20248;-80
2022/01/23 05:16:25;;;;;;;33.13;18.67;;;;;;;;;;5078364;28;20215;-80
2022/01/23 05:18:53;;;;;;;31.43;17.90;;;;;;;;;;5074134;28;20242;-80
2022/01/23 05:21:49;;;;;;;37.17;19.77;;;;;;;;;;5074204;28;20827;-80
2022/01/23 05:24:22;;;;;;;34.63;18.93;;;;;;;;;;5073448;28;20234;-81
2022/01/23 05:26:49;;;;;;;32.10;17.50;;;;;;;;;;5072647;28;20278;-81
2022/01/23 05:29:16;;;;;;;30.93;18.17;;;;;;;;;;5073319;28;20693;-81
2022/01/23 05:31:44;;;;;;;36.13;18.80;;;;;;;;;;5072202;28;20204;-81
2022/01/23 05:34:11;;;;;;;35.73;18.67;;;;;;;;;;5072629;28;20398;-81
2022/01/23 05:36:38;;;;;;;35.10;19.23;;;;;;;;;;5073346;28;20205;-81
2022/01/23 05:39:05;;;;;;;35.17;18.70;;;;;;;;;;5072167;28;20236;-81
2022/01/23 05:41:33;;;;;;;32.93;18.33;;;;;;;;;;5073202;28;20212;-81
2022/01/23 05:44:02;;;;;;;33.20;19.30;;;;;;;;;;5072862;28;20236;-81
2022/01/23 05:46:29;;;;;;;31.93;17.93;;;;;;;;;;5074094;28;20702;-81
2022/01/23 05:48:56;;;;;;;35.13;19.43;;;;;;;;;;5082899;28;20237;-81
2022/01/23 05:51:23;;;;;;;37.50;19.60;;;;;;;;;;5080116;28;20212;-81
2022/01/23 05:53:50;;;;;;;37.10;19.57;;;;;;;;;;5078572;28;20314;-81
2022/01/23 05:56:17;;;;;;;35.30;18.93;;;;;;;;;;5078998;28;20203;-81
2022/01/23 05:58:46;;;;;;;30.97;17.00;;;;;;;;;;5082240;28;20257;-81
2022/01/23 06:01:13;;;;;;;30.47;17.60;;;;;;;;;;5090198;28;20215;-81
2022/01/23 06:03:40;;;;;;;29.60;18.00;;;;;;;;;;5078315;28;20259;-81
2022/01/23 06:06:07;;;;;;;31.57;18.53;;;;;;;;;;5078510;28;20227;-81
2022/01/23 06:08:34;;;;;;;34.07;18.67;;;;;;;;;;5086500;28;20701;-81
2022/01/23 06:11:01;;;;;;;34.20;18.93;;;;;;;;;;5098647;28;20211;-81
2022/01/23 06:13:29;;;;;;;33.40;19.43;;;;;;;;;;5097977;28;20248;-81
2022/01/23 06:15:57;;;;;;;36.87;19.33;;;;;;;;;;5098335;28;20207;-81
2022/01/23 06:18:24;;;;;;;33.10;18.03;;;;;;;;;;5096906;28;20233;-81
2022/01/23 06:20:51;;;;;;;39.33;18.60;;;;;;;;;;5098009;28;20790;-81
2022/01/23 06:23:19;;;;;;;31.43;18.27;;;;;;;;;;5087423;28;20235;-81
2022/01/23 06:25:47;;;;;;;30.17;17.63;;;;;;;;;;5078095;28;20287;-81
2022/01/23 06:28:16;;;;;;;32.30;18.17;;;;;;;;;;5078068;28;20246;-80
2022/01/23 06:30:43;;;;;;;35.63;18.87;;;;;;;;;;5077237;28;20209;-80
2022/01/23 06:33:11;;;;;;;36.53;19.33;;;;;;;;;;5077140;28;20241;-81
2022/01/23 06:35:38;;;;;;;31.83;18.20;;;;;;;;;;5077176;28;20205;-81
2022/01/23 06:38:05;;;;;;;36.73;19.60;;;;;;;;;;5077808;28;20233;-80
2022/01/23 06:40:32;;;;;;;35.00;18.70;;;;;;;;;;5077991;28;20212;-81
2022/01/23 06:42:59;;;;;;;34.47;17.97;;;;;;;;;;5077316;28;20295;-80
2022/01/23 06:45:26;;;;;;;31.93;17.23;;;;;;;;;;5077826;28;20232;-81
2022/01/23 06:47:53;;;;;;;32.47;17.83;;;;;;;;;;5073985;28;20719;-81
2022/01/23 06:50:24;;;;;;;34.73;17.77;;;;;;;;;;5074557;28;20215;-81
2022/01/23 06:52:52;;;;;;;31.67;18.17;;;;;;;;;;5074064;28;20913;-81
2022/01/23 06:55:19;;;;;;;31.23;17.30;;;;;;;;;;5074610;28;20226;-81
2022/01/23 06:57:46;;;;;;;36.13;18.10;;;;;;;;;;5077649;28;20935;-81
2022/01/23 07:00:13;;;;;;;31.67;17.40;;;;;;;;;;5095034;28;20207;-81
2022/01/23 07:02:40;;;;;;;30.67;16.97;;;;;;;;;;5084299;28;20236;-82
2022/01/23 07:05:08;;;;;;;34.47;18.40;;;;;;;;;;5073177;28;20209;-83
2022/01/23 07:07:36;;;;;;;33.23;18.03;;;;;;;;;;5074804;28;20225;-83
2022/01/23 07:10:03;;;;;;;31.37;17.23;;;;;;;;;;5092503;28;20738;-83
2022/01/23 07:12:30;;;;;;;31.50;17.67;;;;;;;;;;5091798;28;20722;-83
2022/01/23 07:14:57;;;;;;;39.27;20.37;;;;;;;;;;5092128;28;20209;-83
2022/01/23 07:17:24;;;;;;;35.67;18.30;;;;;;;;;;5091657;28;20662;-83
2022/01/23 07:19:51;;;;;;;30.47;18.50;;;;;;;;;;5088582;28;20209;-84
2022/01/23 07:22:18;;;;;;;34.80;19.20;;;;;;;;;;5071107;28;20247;-83
2022/01/23 07:24:47;;;;;;;34.73;17.93;;;;;;;;;;5071829;28;20204;-84
2022/01/23 07:27:18;;;;;;;34.63;20.10;;;;;;;;;;5071103;28;20299;-84
2022/01/23 07:29:46;;;;;;;37.40;21.40;;;;;;;;;;5079705;28;20210;-85
2022/01/23 07:32:13;;;;;;;42.40;19.37;;;;;;;;;;5081083;28;20323;-85
2022/01/23 07:34:40;;;;;;;35.93;20.17;;;;;;;;;;5070866;28;20209;-85
2022/01/23 07:37:09;;;;;;;36.33;19.97;;;;;;;;;;5070654;28;20231;-85
2022/01/23 07:39:36;;;;;;;36.07;18.90;;;;;;;;;;5071274;28;20571;-84
2022/01/23 07:42:05;;;;;;;38.33;19.83;;;;;;;;;;5070795;28;20700;-84
2022/01/23 07:44:32;;;;;;;38.77;20.17;;;;;;;;;;5070957;28;20208;-84
2022/01/23 07:46:59;;;;;;;38.33;20.90;;;;;;;;;;5069863;28;20239;-84
2022/01/23 07:49:26;;;;;;;43.00;20.23;;;;;;;;;;5083668;28;20200;-84
2022/01/23 07:51:53;;;;;;;42.60;21.03;;;;;;;;;;5090121;28;20215;-84
2022/01/23 07:54:22;;;;;;;39.70;20.57;;;;;;;;;;5091356;28;20208;-84
2022/01/23 07:56:49;;;;;;;34.60;19.27;;;;;;;;;;5089976;28;20688;-84
2022/01/23 07:59:18;;;;;;;42.67;21.10;;;;;;;;;;5090661;28;20208;-84
2022/01/23 08:01:45;;;;;;;42.93;21.73;;;;;;;;;;5091634;28;20222;-84
2022/01/23 08:04:12;;;;;;;42.83;22.03;;;;;;;;;;5094871;28;20924;-84
2022/01/23 08:06:43;;;;;;;47.60;23.33;;;;;;;;;;5091492;28;20814;-84
2022/01/23 08:09:10;;;;;;;43.67;23.50;;;;;;;;;;5093838;28;20236;-84
2022/01/23 08:11:37;;;;;;;45.20;24.03;;;;;;;;;;5092361;28;20238;-84
2022/01/23 08:14:04;;;;;;;48.90;24.27;;;;;;;;;;5091653;28;20243;-84
2022/01/23 08:16:33;;;;;;;49.17;22.03;;;;;;;;;;5092688;28;20210;-84
2022/01/23 08:19:00;;;;;;;51.47;24.00;;;;;;;;;;5092465;28;20232;-84
2022/01/23 08:21:27;;;;;;;44.80;22.43;;;;;;;;;;5094024;28;20200;-84
2022/01/23 08:23:54;;;;;;;46.50;23.57;;;;;;;;;;5091111;28;20234;-84
2022/01/23 08:26:23;;;;;;;45.07;22.40;;;;;;;;;;5093249;28;20322;-84
2022/01/23 08:28:53;;;;;;;45.20;22.93;;;;;;;;;;5092934;28;20221;-84
2022/01/23 08:31:20;;;;;;;50.37;23.20;;;;;;;;;;5094403;28;20214;-83
2022/01/23 08:33:49;;;;;;;42.80;24.37;;;;;;;;;;5093164;28;20239;-83
2022/01/23 08:36:16;;;;;;;47.93;24.73;;;;;;;;;;5092754;28;20210;-84
2022/01/23 08:38:43;;;;;;;56.80;26.00;;;;;;;;;;5093747;28;20243;-84
2022/01/23 08:43:55;;;;;;;45.27;22.40;;;;;;;;;;5093182;28;20278;-83
2022/01/23 08:46:22;;;;;;;41.70;21.23;;;;;;;;;;5089775;28;20232;-83
2022/01/23 08:48:51;;;;;;;49.83;22.43;;;;;;;;;;5092548;28;21085;-83
2022/01/23 08:51:18;;;;;;;41.60;21.67;;;;;;;;;;5093841;28;20216;-84
2022/01/23 08:53:45;;;;;;;49.53;24.27;;;;;;;;;;5092514;28;20243;-84
2022/01/23 08:56:12;;;;;;;52.33;23.80;;;;;;;;;;5093179;28;20201;-84
2022/01/23 08:58:39;;;;;;;48.80;23.43;;;;;;;;;;5092327;28;20282;-83
2022/01/23 09:01:06;;;;;;;48.70;23.17;;;;;;;;;;5094207;28;20212;-83
2022/01/23 09:03:33;;;;;;;53.37;23.53;;;;;;;;;;5092416;28;20248;-84
2022/01/23 09:06:01;;;;;;;44.33;23.50;;;;;;;;;;5093441;28;20691;-84
2022/01/23 09:08:29;;;;;;;50.13;23.87;;;;;;;;;;5094338;28;20716;-84
2022/01/23 09:10:58;;;;;;;45.77;23.37;;;;;;;;;;5093069;28;20211;-83
2022/01/23 09:13:33;;;;;;;42.30;21.17;;;;;;;;;;5093587;28;20247;-83
2022/01/23 09:16:00;;;;;;;44.93;22.87;;;;;;;;;;5099355;28;20292;-82
2022/01/23 09:18:27;;;;;;;34.03;20.00;;;;;;;;;;5093167;28;20256;-83
2022/01/23 09:20:54;;;;;;;42.10;23.07;;;;;;;;;;5094025;28;20212;-84
2022/01/23 09:23:22;;;;;;;41.87;22.97;;;;;;;;;;5093128;28;20240;-82
2022/01/23 09:25:49;;;;;;;35.73;20.23;;;;;;;;;;5093689;28;20200;-83
2022/01/23 09:28:19;;;;;;;37.90;19.50;;;;;;;;;;5091670;28;20263;-82
2022/01/23 09:30:49;;;;;;;37.63;21.33;;;;;;;;;;5096024;28;20631;-82
2022/01/23 09:33:17;;;;;;;41.33;20.63;;;;;;;;;;5091721;28;20303;-82
2022/01/23 09:35:44;;;;;;;35.67;19.63;;;;;;;;;;5097873;28;20212;-82
2022/01/23 09:38:11;;;;;;;37.07;21.00;;;;;;;;;;5098064;28;20280;-82
2022/01/23 09:40:40;;;;;;;43.20;21.23;;;;;;;;;;5097641;28;20220;-82
2022/01/23 09:43:08;;;;;;;42.47;21.20;;;;;;;;;;5094607;28;20248;-81
2022/01/23 09:45:35;;;;;;;45.03;20.40;;;;;;;;;;5095481;28;20211;-82
2022/01/23 09:48:03;;;;;;;35.17;20.07;;;;;;;;;;5079360;28;20307;-82
2022/01/23 09:50:31;;;;;;;41.67;21.20;;;;;;;;;;5093079;28;20217;-82
2022/01/23 09:52:58;;;;;;;40.00;21.07;;;;;;;;;;5101909;28;20684;-81
2022/01/23 09:55:27;;;;;;;38.47;19.40;;;;;;;;;;5109976;28;20204;-81
2022/01/23 09:57:55;;;;;;;38.33;19.60;;;;;;;;;;5093481;28;20235;-81
2022/01/23 10:00:24;;;;;;;37.13;20.57;;;;;;;;;;5095955;28;20234;-82
2022/01/23 10:02:51;;;;;;;37.40;19.80;;;;;;;;;;5095628;28;20247;-81
2022/01/23 10:05:19;;;;;;;36.83;20.63;;;;;;;;;;5097474;28;20223;-82
2022/01/23 10:07:46;;;;;;;42.77;22.27;;;;;;;;;;5095075;28;20240;-81
2022/01/23 10:10:18;;;;;;;39.67;21.47;;;;;;;;;;5095596;28;20220;-81
2022/01/23 10:12:47;;;;;;;34.70;19.30;;;;;;;;;;5088014;28;20252;-81
2022/01/23 10:15:15;;;;;;;34.73;19.13;;;;;;;;;;5094353;28;20199;-81
2022/01/23 10:17:42;;;;;;;31.83;17.37;;;;;;;;;;5093835;28;20242;-82
2022/01/23 10:20:11;;;;;;;30.83;18.10;;;;;;;;;;5094783;28;20212;-81
2022/01/23 10:22:41;;;;;;;31.73;17.93;;;;;;;;;;5093338;28;20246;-81
2022/01/23 10:25:09;;;;;;;32.73;16.87;;;;;;;;;;5094481;28;20209;-82
2022/01/23 10:27:51;;;;;;;29.20;17.17;;;;;;;;;;5094737;28;20247;-82
2022/01/23 10:30:20;;;;;;;29.53;16.20;;;;;;;;;;5094948;28;20585;-82
2022/01/23 10:32:56;;;;;;;30.03;17.23;;;;;;;;;;5085778;28;20239;-82
2022/01/23 10:35:24;;;;;;;29.63;17.33;;;;;;;;;;5100724;28;20200;-82
2022/01/23 10:37:52;;;;;;;27.93;15.67;;;;;;;;;;5111127;28;20238;-83
2022/01/23 10:40:26;;;;;;;30.20;17.73;;;;;;;;;;5091660;28;20208;-82
2022/01/23 10:46:35;;;;;;;30.50;17.40;;;;;;;;;;5090649;28;20242;-82
2022/01/23 10:48:37;;;;;;;32.13;17.80;;;;;;;;;;5091295;28;20313;-82
2022/01/23 10:51:15;;;;;;;32.87;17.00;;;;;;;;;;5101448;28;20710;-82
2022/01/23 10:53:57;;;;;;;29.60;18.40;;;;;;;;;;5111421;28;20235;-83
2022/01/23 10:56:24;;;;;;;27.47;16.53;;;;;;;;;;5093111;28;20269;-82
2022/01/23 10:58:57;;;;;;;31.03;17.13;;;;;;;;;;5091765;28;20224;-82
2022/01/23 11:01:27;;;;;;;32.00;18.50;;;;;;;;;;5091682;28;20275;-82
2022/01/23 11:04:04;;;;;;;30.57;16.60;;;;;;;;;;5095373;28;20231;-82
2022/01/23 11:06:31;;;;;;;28.20;16.50;;;;;;;;;;5096936;28;20223;-82
2022/01/23 11:09:08;;;;;;;24.20;15.97;;;;;;;;;;5097458;28;20644;-82
2022/01/23 11:11:43;;;;;;;26.47;16.27;;;;;;;;;;5093772;28;20358;-82
2022/01/23 11:19:46;;;;;;;22.50;13.13;;;;;;;;;;5112127;28;20206;-82
2022/01/23 11:22:17;;;;;;;21.53;13.07;;;;;;;;;;5110907;28;20685;-82
2022/01/23 11:24:47;;;;;;;23.00;12.77;;;;;;;;;;5111749;28;20243;-82
2022/01/23 11:27:14;;;;;;;20.83;13.00;;;;;;;;;;5104654;28;20240;-82
2022/01/23 11:29:53;;;;;;;16.03;11.53;;;;;;;;;;5091697;28;20621;-82
2022/01/23 11:32:24;;;;;;;26.27;11.37;;;;;;;;;;5091508;28;20765;-82
2022/01/23 11:34:51;;;;;;;20.03;12.30;;;;;;;;;;5092042;28;20197;-82
2022/01/23 11:37:19;;;;;;;19.10;11.30;;;;;;;;;;5093256;28;20601;-82
2022/01/23 11:39:50;;;;;;;17.97;11.37;;;;;;;;;;5095622;28;20226;-82
2022/01/23 11:56:38;;;;;;;17.87;10.30;;;;;;;;;;5031896;28;20301;-82
2022/01/23 11:59:17;;;;;;;13.40;9.40;;;;;;;;;;5084631;28;20724;-81
2022/01/23 12:01:45;;;;;;;14.93;9.93;;;;;;;;;;5094829;28;20251;-82
2022/01/23 12:04:20;;;;;;;15.10;10.87;;;;;;;;;;5096016;28;20229;-82
2022/01/23 12:07:19;;;;;;;12.30;9.00;;;;;;;;;;5094504;28;20751;-82
2022/01/23 12:10:09;;;;;;;17.50;9.53;;;;;;;;;;5097288;28;21020;-82
2022/01/23 12:12:40;;;;;;;13.57;9.70;;;;;;;;;;5094007;28;20233;-82
2022/01/23 12:18:13;;;;;;;15.10;8.80;;;;;;;;;;5094467;28;20711;-82
2022/01/23 12:20:42;;;;;;;13.10;9.27;;;;;;;;;;5084607;28;20208;-83
2022/01/23 12:23:10;;;;;;;14.83;9.40;;;;;;;;;;5095081;28;20720;-83
2022/01/23 12:25:41;;;;;;;13.67;8.97;;;;;;;;;;5095795;28;20806;-83
2022/01/23 12:28:10;;;;;;;12.63;8.80;;;;;;;;;;5109007;28;20239;-84
2022/01/23 12:30:38;;;;;;;12.97;9.00;;;;;;;;;;5115411;28;20215;-84
2022/01/23 12:33:13;;;;;;;11.77;8.83;;;;;;;;;;5114729;28;20255;-85
2022/01/23 12:35:43;;;;;;;10.37;7.73;;;;;;;;;;5115763;28;20572;-84
2022/01/23 12:38:11;;;;;;;12.40;8.53;;;;;;;;;;5117614;28;20235;-84
2022/01/23 12:40:41;;;;;;;11.00;8.03;;;;;;;;;;5120673;28;20249;-85
2022/01/23 12:43:09;;;;;;;12.17;7.47;;;;;;;;;;5089591;28;20231;-85
2022/01/23 12:45:46;;;;;;;12.47;8.33;;;;;;;;;;5090069;28;20193;-85
2022/01/23 12:48:32;;;;;;;15.77;8.50;;;;;;;;;;5095156;28;20232;-85
2022/01/23 12:51:05;;;;;;;10.10;7.70;;;;;;;;;;5096944;28;20204;-85
2022/01/23 12:53:36;;;;;;;11.10;8.50;;;;;;;;;;5097473;28;20240;-86
2022/01/23 12:56:04;;;;;;;12.40;8.03;;;;;;;;;;5095287;28;20212;-85
2022/01/23 12:58:34;;;;;;;10.97;7.67;;;;;;;;;;5091332;28;20224;-86
2022/01/23 13:01:02;;;;;;;11.47;8.27;;;;;;;;;;5074066;28;20194;-85
2022/01/23 13:03:29;;;;;;;9.87;7.40;;;;;;;;;;5073459;28;20328;-86
2022/01/23 13:05:56;;;;;;;9.57;6.80;;;;;;;;;;5074400;28;20194;-85
2022/01/23 13:08:28;;;;;;;8.23;6.17;;;;;;;;;;5074659;28;20600;-85
2022/01/23 13:11:23;;;;;;;7.90;6.20;;;;;;;;;;5074810;28;20224;-85
2022/01/23 13:13:58;;;;;;;6.87;5.50;;;;;;;;;;5074213;28;20244;-85
2022/01/23 13:16:35;;;;;;;9.27;6.00;;;;;;;;;;5075489;28;20238;-86
2022/01/23 13:19:44;;;;;;;6.50;5.53;;;;;;;;;;5074215;28;20608;-86
2022/01/23 13:29:09;;;;;;;6.23;5.27;;;;;;;;;;5078148;28;20724;-83
2022/01/23 13:31:17;;;;;;;5.70;4.83;;;;;;;;;;5090026;28;20202;-83
2022/01/23 13:33:44;;;;;;;6.97;5.60;;;;;;;;;;5085095;28;20236;-83
2022/01/23 13:36:11;;;;;;;6.27;4.87;;;;;;;;;;5098284;28;20676;-84
2022/01/23 13:38:39;;;;;;;6.97;5.30;;;;;;;;;;5099306;28;20743;-82
2022/01/23 13:41:23;;;;;;;6.93;4.93;;;;;;;;;;5097393;28;20235;-83
2022/01/23 13:50:23;;;;;;;5.17;4.43;;;;;;;;;;5095249;28;20234;-83
2022/01/23 13:52:36;;;;;;;5.03;4.43;;;;;;;;;;5098842;28;20319;-83
2022/01/23 13:58:32;;;;;;;5.20;4.27;;;;;;;;;;5097813;28;20235;-81
2022/01/23 14:01:02;;;;;;;5.17;3.97;;;;;;;;;;5074997;28;20202;-81
2022/01/23 14:03:29;;;;;;;4.27;3.83;;;;;;;;;;5077612;28;20237;-80
2022/01/23 14:05:57;;;;;;;4.17;3.50;;;;;;;;;;5075519;28;20205;-82
2022/01/23 14:08:24;;;;;;;3.90;3.50;;;;;;;;;;5076074;28;20221;-83
2022/01/23 14:10:54;;;;;;;4.40;4.00;;;;;;;;;;5097060;28;20209;-81
2022/01/23 14:13:25;;;;;;;4.67;3.63;;;;;;;;;;5097385;28;20228;-82
2022/01/23 14:15:54;;;;;;;5.20;4.00;;;;;;;;;;5097213;28;20211;-83
2022/01/23 14:18:24;;;;;;;4.97;4.20;;;;;;;;;;5088573;28;20232;-82
2022/01/23 14:20:56;;;;;;;3.83;3.50;;;;;;;;;;5077698;28;20201;-83
2022/01/23 14:23:23;;;;;;;4.23;3.77;;;;;;;;;;5079810;28;20260;-84
2022/01/23 14:25:51;;;;;;;4.13;3.70;;;;;;;;;;5098679;28;20208;-84
2022/01/23 14:28:20;;;;;;;4.93;4.43;;;;;;;;;;5083470;28;20697;-84
2022/01/23 14:30:50;;;;;;;4.90;4.10;;;;;;;;;;5099731;28;20208;-84
2022/01/23 14:33:19;;;;;;;6.57;4.63;;;;;;;;;;5116490;28;20236;-85
2022/01/23 14:35:47;;;;;;;5.00;4.17;;;;;;;;;;5117220;28;20212;-84
2022/01/23 14:38:15;;;;;;;6.73;5.10;;;;;;;;;;5119378;28;20228;-84
2022/01/23 14:40:52;;;;;;;7.23;5.07;;;;;;;;;;5120181;28;20620;-84
2022/01/23 14:43:20;;;;;;;6.77;4.70;;;;;;;;;;5118050;28;20236;-85
2022/01/23 14:45:49;;;;;;;6.27;4.70;;;;;;;;;;5119553;28;20210;-85
2022/01/23 14:48:18;;;;;;;4.50;4.10;;;;;;;;;;5114991;28;20232;-84
2022/01/23 14:50:51;;;;;;;4.83;4.10;;;;;;;;;;5099552;28;20574;-84
2022/01/23 14:53:19;;;;;;;7.13;4.30;;;;;;;;;;5098344;28;20236;-84
2022/01/23 14:55:48;;;;;;;4.80;4.30;;;;;;;;;;5099734;28;20212;-85
2022/01/23 14:58:18;;;;;;;5.47;3.73;;;;;;;;;;5099137;28;20236;-84
2022/01/23 15:00:45;;;;;;;5.40;3.87;;;;;;;;;;5100650;28;20199;-84
2022/01/23 15:03:13;;;;;;;8.53;4.40;;;;;;;;;;5098765;28;20286;-84
2022/01/23 15:05:41;;;;;;;4.20;3.80;;;;;;;;;;5096945;28;20200;-84
2022/01/23 15:08:11;;;;;;;5.37;4.20;;;;;;;;;;5097367;28;20269;-85
2022/01/23 15:10:39;;;;;;;5.00;4.07;;;;;;;;;;5096487;28;20192;-84
2022/01/23 15:13:06;;;;;;;5.17;4.03;;;;;;;;;;5075071;28;20233;-85
2022/01/23 15:15:34;;;;;;;8.40;4.67;;;;;;;;;;5075429;28;20196;-85
2022/01/23 15:18:01;;;;;;;6.10;4.83;;;;;;;;;;5074697;28;20229;-85
2022/01/23 15:20:31;;;;;;;6.67;4.80;;;;;;;;;;5077198;28;20201;-85
2022/01/23 15:22:58;;;;;;;5.43;4.53;;;;;;;;;;5095507;28;20289;-84
2022/01/23 15:25:25;;;;;;;5.47;4.80;;;;;;;;;;5096171;28;20833;-83
2022/01/23 15:27:52;;;;;;;5.80;4.83;;;;;;;;;;5096060;28;20228;-85
2022/01/23 15:30:21;;;;;;;5.50;4.50;;;;;;;;;;5097701;28;20209;-83
2022/01/23 15:32:50;;;;;;;6.50;5.03;;;;;;;;;;5098361;28;20610;-83
2022/01/23 15:35:18;;;;;;;5.30;4.80;;;;;;;;;;5117072;28;20679;-83
2022/01/23 15:37:47;;;;;;;5.60;4.80;;;;;;;;;;5116624;28;20250;-83
2022/01/23 15:40:15;;;;;;;7.53;4.93;;;;;;;;;;5108099;28;20201;-83
2022/01/23 15:42:43;;;;;;;7.70;5.20;;;;;;;;;;5096460;28;20727;-83
2022/01/23 15:45:10;;;;;;;5.83;4.73;;;;;;;;;;5097719;28;20303;-82
2022/01/23 15:47:39;;;;;;;6.73;4.93;;;;;;;;;;5096489;28;20667;-83
2022/01/23 15:50:07;;;;;;;6.17;4.60;;;;;;;;;;5097521;28;20647;-82
2022/01/23 15:52:34;;;;;;;8.70;4.90;;;;;;;;;;5096741;28;20236;-83
2022/01/23 15:55:03;;;;;;;8.90;4.87;;;;;;;;;;5097659;28;20208;-82
2022/01/23 15:57:30;;;;;;;6.27;4.87;;;;;;;;;;5096994;28;20243;-82
2022/01/23 15:59:57;;;;;;;6.43;4.97;;;;;;;;;;5097598;28;20615;-82
2022/01/23 16:02:24;;;;;;;7.90;4.80;;;;;;;;;;5097404;28;20244;-83
2022/01/23 16:04:51;;;;;;;6.70;4.77;;;;;;;;;;5098609;28;20212;-82
2022/01/23 16:07:18;;;;;;;5.93;4.30;;;;;;;;;;5099193;28;20236;-83
2022/01/23 16:09:45;;;;;;;5.00;4.30;;;;;;;;;;5099247;28;20216;-83
2022/01/23 16:12:14;;;;;;;6.03;4.43;;;;;;;;;;5083775;28;20263;-84
2022/01/23 16:14:42;;;;;;;5.47;4.30;;;;;;;;;;5078689;28;20205;-83
2022/01/23 16:17:09;;;;;;;7.63;4.23;;;;;;;;;;5078019;28;20225;-84
2022/01/23 16:19:36;;;;;;;6.40;5.10;;;;;;;;;;5099583;28;20209;-83
2022/01/23 16:22:04;;;;;;;6.80;4.50;;;;;;;;;;5090258;28;20233;-83
2022/01/23 16:24:31;;;;;;;4.63;4.03;;;;;;;;;;5080789;28;20189;-82
2022/01/23 16:26:58;;;;;;;5.47;4.33;;;;;;;;;;5077223;28;20201;-82
2022/01/23 16:29:27;;;;;;;5.47;4.43;;;;;;;;;;5078882;28;20232;-82
2022/01/23 16:31:56;;;;;;;4.60;3.93;;;;;;;;;;5077574;28;20237;-83
2022/01/23 16:34:24;;;;;;;6.97;3.70;;;;;;;;;;5077818;28;20212;-82
2022/01/23 16:36:51;;;;;;;5.97;4.40;;;;;;;;;;5076698;28;20206;-83
2022/01/23 16:39:18;;;;;;;11.77;4.30;;;;;;;;;;5078802;28;20212;-83
2022/01/23 16:41:45;;;;;;;6.10;4.07;;;;;;;;;;5078752;28;20200;-84
2022/01/23 16:44:12;;;;;;;10.43;4.03;;;;;;;;;;5077968;28;20236;-81
2022/01/23 16:46:41;;;;;;;7.80;4.20;;;;;;;;;;5082648;28;20212;-83
2022/01/23 16:49:09;;;;;;;5.97;3.90;;;;;;;;;;5093230;28;20228;-82
2022/01/23 16:51:38;;;;;;;6.17;3.60;;;;;;;;;;5097711;28;20209;-81
2022/01/23 16:54:06;;;;;;;5.50;4.50;;;;;;;;;;5079042;28;20237;-82
2022/01/23 16:56:33;;;;;;;6.93;4.17;;;;;;;;;;5078550;28;20205;-81
2022/01/23 16:59:00;;;;;;;4.53;4.07;;;;;;;;;;5084222;28;20228;-81
2022/01/23 17:01:27;;;;;;;5.07;4.23;;;;;;;;;;5098046;28;20220;-81
2022/01/23 17:03:56;;;;;;;6.53;4.23;;;;;;;;;;5096083;28;20836;-81
2022/01/23 17:06:23;;;;;;;4.73;4.10;;;;;;;;;;5097498;28;20204;-81